Terminal Aerodrome Forecast
Issued by NWS

Home | Current Version | Previous Version | Text Only | Print | Product List | Glossary On
Versions: 1 2 3 4 5 6 7 8 9 10 11 12 13 14 15 16 17 18
000
FTUS46 KOTX 241135
TAFMWH
TAF
KMWH 241135Z 2412/2512 17006KT P6SM BKN110 OVC200
     FM242200 10007KT P6SM VCSH SCT040 BKN060
     FM250000 09007KT P6SM -RA SCT025 OVC050
     FM250600 03008KT P6SM VCSH SCT035 OVC070=

USA.gov is the U.S. government's official web portal to all federal, state and local government web resources and services.